Time;durP1;ratioP1;P1;durP2;ratioP2;P2;SDS_P1;SDS_P2;PMS_P1;PMS_P2;Temp;Humidity;BMP_temperature;BMP_pressure;BME280_temperature;BME280_humidity;BME280_pressure;Samples;Min_cycle;Max_cycle;Signal;HPM_P1;HPM_P2
2023/06/15 00:01:52;;;;;;;3.80;3.50;;;16.10;1.00;;;;;;5110117;27;20414;-73
2023/06/15 00:04:18;;;;;;;7.07;2.90;;;16.00;1.00;;;;;;5122826;27;20420;-74
2023/06/15 00:07:18;;;;;;;7.20;3.50;;;16.00;1.00;;;;;;5114344;27;20921;-80
2023/06/15 00:09:55;;;;;;;7.33;3.10;;;15.90;1.00;;;;;;5095690;27;20486;-80
2023/06/15 00:12:32;;;;;;;2.80;2.60;;;15.80;1.00;;;;;;5108812;27;20517;-80
2023/06/15 00:15:31;;;;;;;5.10;3.37;;;15.80;1.00;;;;;;5089677;28;20401;-80
2023/06/15 00:17:57;;;;;;;7.07;4.10;;;15.70;1.00;;;;;;5096684;28;20408;-80
2023/06/15 00:20:31;;;;;;;7.20;3.20;;;15.70;1.00;;;;;;5132195;27;20389;-80
2023/06/15 00:22:58;;;;;;;5.03;2.97;;;15.70;1.00;;;;;;5108769;27;20579;-73
2023/06/15 00:25:24;;;;;;;4.30;3.43;;;15.60;1.00;;;;;;5122247;27;20469;-73
2023/06/15 00:27:55;;;;;;;3.80;2.80;;;15.50;1.00;;;;;;5119731;27;20974;-74
2023/06/15 00:30:21;;;;;;;3.33;3.03;;;15.50;1.00;;;;;;5116293;28;20806;-74
2023/06/15 00:32:46;;;;;;;5.50;3.30;;;15.50;1.00;;;;;;5098280;28;20423;-74
2023/06/15 00:35:12;;;;;;;4.70;3.50;;;15.50;1.00;;;;;;5130789;27;20178;-74
2023/06/15 00:37:43;;;;;;;3.50;3.07;;;15.40;1.00;;;;;;5129563;27;20177;-81
2023/06/15 00:43:30;;;;;;;4.33;3.40;;;15.30;1.00;;;;;;5114139;27;20505;-81
2023/06/15 00:46:02;;;;;;;4.43;3.47;;;15.20;1.00;;;;;;5115977;27;20410;-80
2023/06/15 00:48:43;;;;;;;4.43;3.97;;;15.20;1.00;;;;;;5125335;27;20181;-80
2023/06/15 00:51:13;;;;;;;5.57;4.33;;;15.20;1.00;;;;;;5117877;27;20462;-80
2023/06/15 00:53:50;;;;;;;7.40;3.20;;;15.20;1.00;;;;;;5121349;27;20423;-81
2023/06/15 00:56:29;;;;;;;5.77;4.00;;;15.10;1.00;;;;;;5117765;27;20434;-80
2023/06/15 00:59:07;;;;;;;3.93;3.10;;;15.20;1.00;;;;;;5134604;27;20419;-80
2023/06/15 01:02:03;;;;;;;4.53;3.70;;;15.20;1.00;;;;;;5120447;27;20598;-80
2023/06/15 01:04:37;;;;;;;9.30;3.43;;;15.10;1.00;;;;;;5100116;27;20468;-80
2023/06/15 01:07:10;;;;;;;4.60;3.67;;;15.10;1.00;;;;;;5092098;28;20428;-79
2023/06/15 01:09:38;;;;;;;7.87;3.67;;;15.10;1.00;;;;;;5112855;27;20446;-74
2023/06/15 01:12:07;;;;;;;6.87;3.87;;;15.10;1.00;;;;;;5130792;27;20486;-74
2023/06/15 01:14:34;;;;;;;3.70;3.40;;;15.10;1.00;;;;;;5105481;28;20435;-73
2023/06/15 01:17:05;;;;;;;3.53;3.23;;;15.10;1.00;;;;;;5101901;27;20790;-74
2023/06/15 01:19:57;;;;;;;5.57;3.73;;;15.10;1.00;;;;;;5115855;27;20407;-73
2023/06/15 01:22:49;;;;;;;5.53;3.40;;;15.10;1.00;;;;;;5118832;27;20427;-80
2023/06/15 01:25:43;;;;;;;3.67;3.20;;;15.00;1.00;;;;;;5115274;28;20405;-80
2023/06/15 01:28:49;;;;;;;3.67;3.10;;;15.00;1.00;;;;;;5124317;27;20480;-80
2023/06/15 01:31:25;;;;;;;5.30;3.50;;;15.00;1.00;;;;;;5118388;27;20433;-80
2023/06/15 01:34:01;;;;;;;3.60;3.20;;;15.00;1.00;;;;;;5119449;27;20410;-80
2023/06/15 01:36:31;;;;;;;4.10;3.70;;;15.00;1.00;;;;;;5120935;27;20484;-80
2023/06/15 01:39:25;;;;;;;3.33;3.03;;;15.00;1.00;;;;;;5125178;27;20424;-80
2023/06/15 01:42:13;;;;;;;6.70;3.27;;;14.90;1.00;;;;;;5092959;27;20461;-80
2023/06/15 01:44:50;;;;;;;8.00;3.40;;;14.90;1.00;;;;;;5118702;27;20430;-80
2023/06/15 01:47:26;;;;;;;4.13;3.63;;;14.90;1.00;;;;;;5108784;27;20386;-81
2023/06/15 01:50:19;;;;;;;8.20;3.23;;;14.90;1.00;;;;;;5104562;27;20494;-81
2023/06/15 01:52:55;;;;;;;3.37;3.07;;;14.80;1.00;;;;;;5114456;27;20432;-80
2023/06/15 01:55:31;;;;;;;8.37;3.37;;;14.80;1.00;;;;;;5112990;28;20484;-80
2023/06/15 01:58:01;;;;;;;11.20;3.30;;;14.80;1.00;;;;;;5135729;27;20394;-81
2023/06/15 02:00:31;;;;;;;3.70;3.10;;;14.80;1.00;;;;;;5116594;27;20379;-80
2023/06/15 02:03:01;;;;;;;5.40;3.60;;;14.70;1.00;;;;;;5126021;27;20769;-80
2023/06/15 02:05:28;;;;;;;6.33;4.03;;;14.70;1.00;;;;;;5118918;27;20941;-80
2023/06/15 02:08:18;;;;;;;5.73;3.50;;;14.70;1.00;;;;;;5111027;27;20399;-80
2023/06/15 02:11:01;;;;;;;3.67;3.20;;;14.60;1.00;;;;;;5112830;28;20475;-80
2023/06/15 02:13:37;;;;;;;4.93;3.40;;;14.70;1.00;;;;;;5114360;28;20431;-80
2023/06/15 02:16:08;;;;;;;3.40;3.10;;;14.60;1.00;;;;;;5077168;28;20468;-80
2023/06/15 02:18:44;;;;;;;3.93;3.60;;;14.70;1.00;;;;;;5109518;27;20477;-80
2023/06/15 02:21:13;;;;;;;3.97;3.67;;;14.70;1.00;;;;;;5110006;27;20411;-81
2023/06/15 02:23:43;;;;;;;4.80;3.70;;;14.60;1.00;;;;;;5126939;27;20469;-80
2023/06/15 02:26:25;;;;;;;6.43;4.00;;;14.70;1.00;;;;;;5099131;27;20378;-80
2023/06/15 02:28:55;;;;;;;7.93;3.43;;;14.60;1.00;;;;;;5106618;28;20409;-80
2023/06/15 02:31:25;;;;;;;5.20;3.63;;;14.60;1.00;;;;;;5093144;28;20438;-80
2023/06/15 02:33:55;;;;;;;3.80;3.50;;;14.60;1.00;;;;;;5112340;28;20927;-80
2023/06/15 02:36:49;;;;;;;2.90;2.70;;;14.60;1.00;;;;;;5113177;27;20421;-80
2023/06/15 02:39:49;;;;;;;3.73;3.37;;;14.60;1.00;;;;;;5123901;27;20430;-80
2023/06/15 02:42:19;;;;;;;15.77;4.10;;;14.60;1.00;;;;;;5095884;28;20364;-80
2023/06/15 02:44:45;;;;;;;5.90;3.80;;;14.60;1.00;;;;;;5127901;27;20918;-80
2023/06/15 02:47:13;;;;;;;4.50;4.00;;;14.50;1.00;;;;;;5114215;28;20454;-80
2023/06/15 02:49:43;;;;;;;3.63;3.20;;;14.50;1.00;;;;;;5127522;27;20916;-81
2023/06/15 02:52:31;;;;;;;4.10;3.70;;;14.50;1.00;;;;;;5107579;27;20435;-80
2023/06/15 02:55:32;;;;;;;5.37;3.60;;;14.50;1.00;;;;;;5104393;28;20393;-81
2023/06/15 02:58:07;;;;;;;9.27;3.90;;;14.40;1.00;;;;;;5117343;27;20388;-81
2023/06/15 03:00:50;;;;;;;5.60;4.00;;;14.40;1.00;;;;;;5112209;27;20396;-80
2023/06/15 03:03:40;;;;;;;3.83;3.47;;;14.30;1.00;;;;;;5115501;28;20402;-80
2023/06/15 03:06:08;;;;;;;5.30;4.07;;;14.30;1.00;;;;;;5102054;28;20398;-81
2023/06/15 03:08:43;;;;;;;6.50;4.03;;;14.30;1.00;;;;;;5122054;27;20483;-80
2023/06/15 03:11:09;;;;;;;5.20;3.83;;;14.30;1.00;;;;;;5101087;28;20814;-80
2023/06/15 03:17:11;;;;;;;5.33;3.93;;;14.20;1.00;;;;;;5132664;27;20420;-86
2023/06/15 03:20:10;;;;;;;4.67;3.60;;;14.30;1.00;;;;;;5088346;28;20406;-86
2023/06/15 03:33:43;;;;;;;6.47;4.10;;;14.10;1.00;;;;;;5116595;28;20447;-86
2023/06/15 03:36:33;;;;;;;5.50;4.27;;;14.10;1.00;;;;;;5114059;28;20389;-86
2023/06/15 03:39:43;;;;;;;9.40;4.10;;;14.10;1.00;;;;;;5111361;28;20389;-88
2023/06/15 03:42:09;;;;;;;7.60;3.93;;;14.20;1.00;;;;;;5122460;28;20438;-88
2023/06/15 03:47:56;;;;;;;9.53;4.00;;;14.20;1.00;;;;;;5094245;28;20917;-88
2023/06/15 03:50:56;;;;;;;9.07;4.70;;;14.20;1.00;;;;;;5101670;28;20451;-88
2023/06/15 03:54:12;;;;;;;8.23;4.60;;;14.20;1.00;;;;;;5122714;28;20175;-88
2023/06/15 04:00:01;;;;;;;9.87;4.00;;;14.30;1.00;;;;;;5124507;28;20422;-84
2023/06/15 04:02:43;;;;;;;6.63;3.70;;;14.30;1.00;;;;;;5089203;28;20401;-85
2023/06/15 04:08:45;;;;;;;9.43;4.07;;;14.40;1.00;;;;;;5096608;28;20394;-86
2023/06/15 04:39:25;;;;;;;6.23;3.73;;;15.00;1.00;;;;;;5118863;27;20496;-85
2023/06/15 04:45:12;;;;;;;6.73;3.70;;;15.10;1.00;;;;;;5128959;27;22316;-85
2023/06/15 05:01:25;;;;;;;4.20;3.40;;;15.60;1.00;;;;;;5123241;27;20410;-85
2023/06/15 05:10:34;;;;;;;7.27;4.40;;;15.90;1.00;;;;;;5121378;27;20478;-84
2023/06/15 05:20:25;;;;;;;5.37;3.97;;;16.30;1.00;;;;;;5120136;27;20411;-86
2023/06/15 05:23:01;;;;;;;10.30;3.87;;;16.40;1.00;;;;;;5080827;28;20529;-86
2023/06/15 05:25:55;;;;;;;3.80;3.50;;;16.50;1.00;;;;;;5108677;27;20946;-86
2023/06/15 05:28:25;;;;;;;7.47;3.83;;;16.70;1.00;;;;;;5119079;27;20428;-90
2023/06/15 05:30:56;;;;;;;6.83;4.03;;;16.80;1.00;;;;;;5106186;28;20480;-90
2023/06/15 05:33:25;;;;;;;5.13;3.70;;;16.90;1.00;;;;;;5100475;27;20441;-88
2023/06/15 05:35:55;;;;;;;7.20;4.00;;;17.10;1.00;;;;;;5097946;28;20467;-89
2023/06/15 05:38:26;;;;;;;11.97;3.97;;;17.10;1.00;;;;;;5092892;27;20418;-89
2023/06/15 05:41:19;;;;;;;11.83;4.30;;;17.10;1.00;;;;;;5104671;28;20450;-89
2023/06/15 05:47:07;;;;;;;6.13;4.00;;;17.40;1.00;;;;;;5110429;27;20815;-90
2023/06/15 05:49:38;;;;;;;4.30;3.60;;;17.50;1.00;;;;;;5097249;28;20470;-88
2023/06/15 05:52:04;;;;;;;4.63;3.40;;;17.60;1.00;;;;;;5093975;27;20178;-89
2023/06/15 06:01:13;;;;;;;13.60;5.30;;;18.00;1.00;;;;;;5115724;28;20401;-90
2023/06/15 06:04:07;;;;;;;5.40;4.23;;;18.10;1.00;;;;;;5106144;27;20521;-90
2023/06/15 06:07:25;;;;;;;14.60;3.73;;;18.20;1.00;;;;;;5091373;27;20175;-91
2023/06/15 06:16:38;;;;;;;10.70;3.83;;;18.60;1.00;;;;;;5124361;27;20460;-90
2023/06/15 06:19:14;;;;;;;6.03;3.27;;;18.70;1.00;;;;;;5111154;27;20985;-90
2023/06/15 06:35:07;;;;;;;5.97;3.67;;;19.20;1.00;;;;;;5115351;27;20529;-90
2023/06/15 06:38:13;;;;;;;6.17;3.93;;;19.30;1.00;;;;;;5115024;27;20414;-90
2023/06/15 06:41:01;;;;;;;6.93;3.40;;;19.40;1.00;;;;;;5091677;28;20855;-90
2023/06/15 06:43:27;;;;;;;11.43;3.63;;;19.60;1.00;;;;;;5093160;28;20440;-86
2023/06/15 06:46:03;;;;;;;4.80;3.70;;;19.70;1.00;;;;;;5105821;28;20440;-87
2023/06/15 06:49:13;;;;;;;6.43;3.80;;;19.80;1.00;;;;;;5107435;28;20185;-87
2023/06/15 06:51:50;;;;;;;5.20;3.67;;;19.90;1.00;;;;;;5114845;27;20525;-86
2023/06/15 06:54:20;;;;;;;8.67;3.60;;;20.00;1.00;;;;;;5097209;28;20835;-87
2023/06/15 06:56:56;;;;;;;6.17;3.70;;;20.20;1.00;;;;;;5076595;28;20427;-87
2023/06/15 06:59:35;;;;;;;10.00;4.23;;;20.40;1.00;;;;;;5113071;27;20460;-88
2023/06/15 07:02:02;;;;;;;4.10;3.20;;;20.40;1.00;;;;;;5092905;28;20425;-88
2023/06/15 07:04:38;;;;;;;7.77;3.70;;;20.50;1.00;;;;;;5098213;27;20428;-88
2023/06/15 07:07:31;;;;;;;9.80;4.23;;;20.80;1.00;;;;;;5103782;28;20941;-88
2023/06/15 07:10:02;;;;;;;5.60;3.33;;;20.90;1.00;;;;;;5111743;28;20469;-88
2023/06/15 07:12:44;;;;;;;9.27;3.33;;;;;;;;;;5103282;28;20798;-88
2023/06/15 07:15:40;;;;;;;13.10;3.60;;;21.30;1.00;;;;;;5110371;28;20430;-88
2023/06/15 07:18:15;;;;;;;4.40;3.63;;;21.30;1.00;;;;;;5109415;28;20506;-82
2023/06/15 07:20:44;;;;;;;8.33;4.10;;;21.50;1.00;;;;;;5113435;28;20437;-82
2023/06/15 07:23:49;;;;;;;9.80;3.73;;;21.70;1.00;;;;;;5103871;28;20446;-82
2023/06/15 07:26:20;;;;;;;5.97;3.40;;;21.70;1.00;;;;;;5107109;28;20800;-82
2023/06/15 07:28:46;;;;;;;4.43;3.70;;;21.80;1.00;;;;;;5104883;28;20896;-83
2023/06/15 07:31:31;;;;;;;6.50;3.73;;;21.80;1.00;;;;;;5106904;28;20497;-84
2023/06/15 07:33:57;;;;;;;8.47;3.73;;;22.00;1.00;;;;;;5090410;28;20443;-82
2023/06/15 07:36:23;;;;;;;4.00;3.60;;;22.00;1.00;;;;;;5088819;28;20435;-81
2023/06/15 07:39:26;;;;;;;7.30;3.77;;;22.10;1.00;;;;;;5107370;28;20185;-81
2023/06/15 07:42:02;;;;;;;5.43;3.50;;;22.20;1.00;;;;;;5104858;28;20272;-81
2023/06/15 07:44:50;;;;;;;5.37;3.60;;;22.30;1.00;;;;;;5122431;28;20784;-82
2023/06/15 07:48:01;;;;;;;5.53;3.50;;;22.30;1.00;;;;;;5127261;28;20916;-81
2023/06/15 07:50:49;;;;;;;7.30;3.60;;;22.40;1.00;;;;;;5115818;28;20453;-81
2023/06/15 07:53:26;;;;;;;4.63;3.77;;;22.60;1.00;;;;;;5109330;27;20428;-82
2023/06/15 07:55:56;;;;;;;6.03;3.80;;;22.60;1.00;;;;;;5122050;27;20388;-82
2023/06/15 07:58:26;;;;;;;3.87;3.57;;;22.70;1.00;;;;;;5114605;27;20433;-81
2023/06/15 08:00:56;;;;;;;5.37;3.50;;;22.70;1.00;;;;;;5121982;27;20437;-81
2023/06/15 08:03:38;;;;;;;10.77;3.67;;;22.90;1.00;;;;;;5117386;27;20946;-82
2023/06/15 08:09:26;;;;;;;3.90;3.50;;;23.00;1.00;;;;;;5113509;27;20501;-81
2023/06/15 08:11:51;;;;;;;9.37;3.97;;;23.10;1.00;;;;;;5114416;27;20474;-81
2023/06/15 08:14:26;;;;;;;7.53;3.80;;;23.20;1.00;;;;;;5112206;27;20424;-81
2023/06/15 08:16:52;;;;;;;3.50;3.30;;;23.40;1.00;;;;;;5115882;28;20534;-76
2023/06/15 08:19:17;;;;;;;4.10;3.70;;;23.40;1.00;;;;;;5120683;27;20438;-76
2023/06/15 08:21:43;;;;;;;13.67;4.03;;;23.40;1.00;;;;;;5120508;27;20176;-75
2023/06/15 08:24:14;;;;;;;7.20;4.13;;;23.60;1.00;;;;;;5109358;27;20277;-76
2023/06/15 08:26:44;;;;;;;7.70;3.87;;;23.70;1.00;;;;;;5126956;27;20534;-76
2023/06/15 08:29:10;;;;;;;6.33;3.90;;;23.80;1.00;;;;;;5125190;27;20455;-76
2023/06/15 08:31:38;;;;;;;4.43;3.73;;;23.90;1.00;;;;;;5137096;27;20932;-76
2023/06/15 08:34:03;;;;;;;3.80;3.50;;;23.80;1.00;;;;;;5116178;27;20176;-81
2023/06/15 08:36:56;;;;;;;5.40;4.13;;;23.80;1.00;;;;;;5122307;27;20742;-81
2023/06/15 08:39:50;;;;;;;4.20;3.80;;;24.00;1.00;;;;;;5118874;27;20188;-81
2023/06/15 08:42:28;;;;;;;5.10;4.13;;;24.10;1.00;;;;;;5121059;27;20528;-81
2023/06/15 08:45:14;;;;;;;5.30;3.57;;;24.20;1.00;;;;;;5102964;28;20937;-81
2023/06/15 08:47:58;;;;;;;4.07;3.70;;;24.30;1.00;;;;;;5116308;28;20790;-81
2023/06/15 08:50:34;;;;;;;3.53;3.13;;;24.40;1.00;;;;;;5114549;27;20552;-81
2023/06/15 08:53:04;;;;;;;4.70;3.97;;;24.40;1.00;;;;;;5123792;27;20446;-82
2023/06/15 08:55:33;;;;;;;4.33;3.67;;;24.50;1.00;;;;;;5116423;28;20505;-81
2023/06/15 08:58:14;;;;;;;10.47;3.90;;;24.50;1.00;;;;;;5089190;28;20526;-81
2023/06/15 09:00:44;;;;;;;3.20;2.90;;;24.50;1.00;;;;;;5120034;27;20422;-82
2023/06/15 09:03:13;;;;;;;53.70;4.50;;;24.60;1.00;;;;;;5121104;27;20528;-81
2023/06/15 09:05:39;;;;;;;3.60;3.30;;;24.80;1.00;;;;;;5113219;28;21154;-81
2023/06/15 09:08:26;;;;;;;5.23;3.30;;;25.00;1.00;;;;;;5110634;28;20529;-81
2023/06/15 09:11:11;;;;;;;4.73;3.63;;;25.00;1.00;;;;;;5114573;27;20539;-80
2023/06/15 09:14:14;;;;;;;9.50;4.17;;;25.10;1.00;;;;;;5122081;27;20460;-81
2023/06/15 09:16:41;;;;;;;3.60;3.30;;;25.20;1.00;;;;;;5081410;28;21037;-81
2023/06/15 09:19:15;;;;;;;5.67;4.00;;;25.30;1.00;;;;;;5100438;27;20492;-81
2023/06/15 09:22:07;;;;;;;8.13;3.63;;;25.30;1.00;;;;;;5109567;27;20424;-87
2023/06/15 09:27:58;;;;;;;3.73;3.43;;;25.60;1.00;;;;;;5104582;27;20926;-87
2023/06/15 09:30:39;;;;;;;5.33;4.50;;;25.60;1.00;;;;;;5100572;27;20531;-87
2023/06/15 09:40:28;;;;;;;6.20;3.50;;;26.00;1.00;;;;;;5113867;28;20416;-92
2023/06/15 09:46:16;;;;;;;5.40;3.30;;;26.50;1.00;;;;;;5126204;27;20425;-92
2023/06/15 09:55:26;;;;;;;7.47;3.20;;;;;;;;;;5105396;27;20489;-87
2023/06/15 10:08:04;;;;;;;5.63;3.03;;;27.50;1.00;;;;;;5108933;27;20948;-87
2023/06/15 10:11:02;;;;;;;2.80;2.60;;;27.50;1.00;;;;;;5093375;28;20559;-87
2023/06/15 10:14:14;;;;;;;3.30;3.00;;;27.70;1.00;;;;;;5112419;28;20467;-87
2023/06/15 10:16:41;;;;;;;3.83;2.90;;;27.90;1.00;;;;;;5096922;28;20953;-87
2023/06/15 10:23:00;;;;;;;8.83;3.10;;;27.90;1.00;;;;;;5094373;28;20427;-92
2023/06/15 10:29:12;;;;;;;3.83;2.70;;;27.80;1.00;;;;;;5099338;28;20423;-92
2023/06/15 10:35:44;;;;;;;4.67;2.90;;;27.90;1.00;;;;;;5100626;28;20522;-87
2023/06/15 10:38:38;;;;;;;10.07;2.73;;;27.80;1.00;;;;;;5090587;28;20422;-87
2023/06/15 10:41:21;;;;;;;2.90;2.73;;;27.70;1.00;;;;;;5076014;28;20438;-87
2023/06/15 10:47:07;;;;;;;3.90;2.50;;;27.90;1.00;;;;;;5108834;28;20415;-87
2023/06/15 10:49:51;;;;;;;3.83;2.80;;;28.20;1.00;;;;;;5089703;28;20411;-91
2023/06/15 10:59:57;;;;;;;3.97;2.50;;;28.60;1.00;;;;;;5104306;28;20456;-91
2023/06/15 11:03:02;;;;;;;9.17;2.70;;;28.60;1.00;;;;;;5078623;28;20489;-92
2023/06/15 11:08:52;;;;;;;4.07;2.50;;;27.90;1.00;;;;;;5083401;28;20424;-92
2023/06/15 11:18:04;;;;;;;3.60;2.80;;;27.10;1.00;;;;;;5107584;28;20493;-92
2023/06/15 11:20:59;;;;;;;3.90;2.93;;;27.20;1.00;;;;;;5074150;28;20454;-87
2023/06/15 11:23:45;;;;;;;3.67;2.57;;;27.50;1.00;;;;;;5092733;28;20423;-87
2023/06/15 11:29:40;;;;;;;7.60;2.47;;;28.00;1.00;;;;;;5077917;28;20464;-87
2023/06/15 11:32:07;;;;;;;3.40;2.87;;;28.40;1.00;;;;;;5076111;28;20537;-87
2023/06/15 11:38:14;;;;;;;2.73;2.50;;;28.60;1.00;;;;;;5097700;28;20412;-87
2023/06/15 11:40:47;;;;;;;2.73;2.53;;;28.70;1.00;;;;;;5068464;28;20418;-87
2023/06/15 11:43:50;;;;;;;9.40;3.00;;;28.80;1.00;;;;;;5087760;28;20979;-87
2023/06/15 11:56:22;;;;;;;9.70;2.60;;;29.50;1.00;;;;;;5105340;28;20426;-91
2023/06/15 11:58:49;;;;;;;3.03;2.70;;;29.20;1.00;;;;;;5090855;28;20512;-92
2023/06/15 12:08:00;;;;;;;9.30;2.90;;;28.80;1.00;;;;;;5094813;28;20438;-92
2023/06/15 12:10:39;;;;;;;6.30;2.77;;;28.60;1.00;;;;;;5079768;28;20489;-92
2023/06/15 12:16:31;;;;;;;4.23;2.83;;;28.20;1.00;;;;;;5090246;28;20416;-92
2023/06/15 12:18:58;;;;;;;3.00;2.60;;;28.30;1.00;;;;;;5086092;28;20525;-92
2023/06/15 12:24:51;;;;;;;5.50;2.37;;;29.00;1.00;;;;;;5094854;28;20429;-87
2023/06/15 12:27:33;;;;;;;6.17;2.53;;;29.50;1.00;;;;;;5073457;28;20794;-87
2023/06/15 12:30:21;;;;;;;4.03;2.80;;;29.90;1.00;;;;;;5089258;28;20443;-87
2023/06/15 12:32:51;;;;;;;3.10;2.50;;;29.90;1.00;;;;;;5071865;28;20503;-87
2023/06/15 12:35:51;;;;;;;2.80;2.60;;;29.80;1.00;;;;;;5080986;28;20439;-87
2023/06/15 12:38:51;;;;;;;3.80;2.90;;;29.70;1.00;;;;;;5090825;28;20428;-87
2023/06/15 12:41:50;;;;;;;11.10;3.10;;;29.50;1.00;;;;;;5078635;28;20468;-87
2023/06/15 12:44:21;;;;;;;7.53;3.00;;;29.30;1.00;;;;;;5089372;28;20436;-85
2023/06/15 12:46:47;;;;;;;9.87;3.03;;;29.10;1.00;;;;;;5060879;28;20982;-86
2023/06/15 12:49:24;;;;;;;10.87;3.10;;;29.00;1.00;;;;;;5075738;28;20522;-86
2023/06/15 12:51:52;;;;;;;4.10;2.47;;;29.10;1.00;;;;;;5074268;28;20470;-87
2023/06/15 12:54:50;;;;;;;7.10;3.10;;;28.90;1.00;;;;;;5064995;28;20762;-87
2023/06/15 12:57:17;;;;;;;4.23;2.93;;;29.00;1.00;;;;;;5074708;28;20437;-87
2023/06/15 12:59:43;;;;;;;4.20;3.13;;;29.30;1.00;;;;;;5096802;28;20492;-87
2023/06/15 13:02:21;;;;;;;7.60;2.80;;;29.60;1.00;;;;;;5086370;28;20440;-87
2023/06/15 13:04:51;;;;;;;3.60;2.90;;;29.90;1.00;;;;;;5074566;28;20630;-88
2023/06/15 13:07:51;;;;;;;3.23;2.93;;;29.90;1.00;;;;;;5090105;28;20429;-86
2023/06/15 13:10:34;;;;;;;5.20;2.83;;;30.20;1.00;;;;;;5079778;28;21038;-87
2023/06/15 13:13:21;;;;;;;2.50;2.30;;;30.60;1.00;;;;;;5116634;28;20436;-87
2023/06/15 13:15:52;;;;;;;6.80;3.00;;;30.60;1.00;;;;;;5080892;28;20462;-87
2023/06/15 13:18:21;;;;;;;5.50;2.90;;;30.70;1.00;;;;;;5077752;28;20448;-87
2023/06/15 13:20:52;;;;;;;3.57;2.33;;;30.70;1.00;;;;;;5077789;28;20490;-92
2023/06/15 13:23:21;;;;;;;2.70;2.50;;;30.80;1.00;;;;;;5074361;28;21011;-92
2023/06/15 13:26:14;;;;;;;3.80;2.70;;;30.70;1.00;;;;;;5076223;28;20947;-88
2023/06/15 13:28:51;;;;;;;4.63;2.30;;;30.50;1.00;;;;;;5076974;28;20481;-91
2023/06/15 13:31:21;;;;;;;3.77;2.37;;;30.00;1.00;;;;;;5074024;28;20494;-90
2023/06/15 13:33:51;;;;;;;3.10;2.90;;;29.70;1.00;;;;;;5068996;28;20952;-91
2023/06/15 13:36:21;;;;;;;4.60;2.40;;;29.80;1.00;;;;;;5076773;28;20429;-86
2023/06/15 13:42:10;;;;;;;9.23;2.30;;;30.20;1.00;;;;;;5106581;28;20403;-91
2023/06/15 13:51:39;;;;;;;2.67;2.40;;;30.60;1.00;;;;;;5094354;28;20863;-88
2023/06/15 13:57:27;;;;;;;5.87;2.63;;;30.80;1.00;;;;;;5109168;28;20430;-87
2023/06/15 13:59:52;;;;;;;8.93;3.10;;;30.80;1.00;;;;;;5097640;28;20431;-88
2023/06/15 14:02:40;;;;;;;3.93;2.43;;;30.90;1.00;;;;;;5090555;28;20613;-88
2023/06/15 14:05:06;;;;;;;6.00;2.27;;;31.10;1.00;;;;;;5102500;28;20266;-88
2023/06/15 14:11:27;;;;;;;2.40;2.20;;;31.50;1.00;;;;;;5092513;28;20483;-93
2023/06/15 14:17:27;;;;;;;4.70;2.50;;;31.60;1.00;;;;;;5094967;28;20447;-94
2023/06/15 14:20:21;;;;;;;2.63;2.43;;;31.70;1.00;;;;;;5073227;28;20939;-94
2023/06/15 14:26:09;;;;;;;5.53;2.77;;;31.60;1.00;;;;;;5093485;28;20481;-90
2023/06/15 14:32:45;;;;;;;4.70;2.80;;;31.60;1.00;;;;;;5110162;28;20246;-90
2023/06/15 14:35:57;;;;;;;3.50;2.83;;;31.70;1.00;;;;;;5093895;28;20510;-91
2023/06/15 14:38:39;;;;;;;4.33;2.50;;;31.50;1.00;;;;;;5076334;28;20514;-93
2023/06/15 14:41:33;;;;;;;2.60;2.30;;;31.50;1.00;;;;;;5077101;28;20459;-93
2023/06/15 14:44:08;;;;;;;2.73;2.50;;;31.40;1.00;;;;;;5080183;28;20430;-92
2023/06/15 14:53:39;;;;;;;3.93;2.60;;;30.90;1.00;;;;;;5098863;28;21622;-91
2023/06/15 14:56:23;;;;;;;2.80;2.50;;;31.00;1.00;;;;;;5080822;28;20432;-92
2023/06/15 14:59:07;;;;;;;5.67;2.53;;;31.00;1.00;;;;;;5084145;28;20527;-89
2023/06/15 15:01:43;;;;;;;3.77;2.67;;;31.10;1.00;;;;;;5076686;28;20428;-89
2023/06/15 15:07:30;;;;;;;6.43;2.47;;;31.50;1.00;;;;;;5091682;28;20543;-89
2023/06/15 15:10:04;;;;;;;5.93;2.90;;;34.40;1.00;;;;;;5078193;28;20489;-91
2023/06/15 15:13:05;;;;;;;4.33;2.70;;;;;;;;;;5117878;27;20545;-88
2023/06/15 15:15:57;;;;;;;6.70;2.30;;;38.30;1.00;;;;;;5095819;28;20521;-90
2023/06/15 15:18:51;;;;;;;2.50;2.30;;;39.60;1.00;;;;;;5091857;28;20481;-88
2023/06/15 15:21:17;;;;;;;8.07;2.50;;;;;;;;;;5087946;28;20497;-90
2023/06/15 15:27:50;;;;;;;4.13;2.13;;;43.80;1.00;;;;;;5109863;28;21275;-87
2023/06/15 15:30:23;;;;;;;2.07;1.87;;;43.90;1.00;;;;;;5074175;28;20413;-81
2023/06/15 15:33:21;;;;;;;1.83;1.73;;;44.70;1.00;;;;;;5084241;28;20415;-87
2023/06/15 15:36:33;;;;;;;3.13;2.30;;;45.10;1.00;;;;;;5074454;28;20493;-86
2023/06/15 15:39:16;;;;;;;3.67;2.00;;;;;;;;;;5098347;28;20470;-87
2023/06/15 15:45:04;;;;;;;2.50;1.80;;;46.00;1.00;;;;;;5105874;28;20415;-85
2023/06/15 15:47:33;;;;;;;6.40;1.93;;;46.80;1.00;;;;;;5089262;28;20421;-89
2023/06/15 15:50:10;;;;;;;6.23;2.17;;;47.40;1.00;;;;;;5076980;28;20587;-87
2023/06/15 15:52:51;;;;;;;10.33;4.43;;;47.90;1.00;;;;;;5065863;28;20457;-87
2023/06/15 15:55:22;;;;;;;2.60;1.97;;;48.30;1.00;;;;;;5056918;28;20473;-85
2023/06/15 15:57:58;;;;;;;7.93;2.80;;;47.80;1.00;;;;;;5067740;28;20432;-86
2023/06/15 16:00:25;;;;;;;2.57;1.90;;;47.50;1.00;;;;;;5060416;28;20426;-86
2023/06/15 16:02:52;;;;;;;4.60;4.20;;;47.60;1.00;;;;;;5069949;28;20412;-90
2023/06/15 16:05:33;;;;;;;2.80;2.30;;;47.70;1.00;;;;;;5067974;28;20426;-88
2023/06/15 16:11:22;;;;;;;5.23;2.50;;;47.70;1.00;;;;;;5069471;28;20983;-88
2023/06/15 16:14:04;;;;;;;9.63;2.57;;;46.20;1.00;;;;;;5066343;28;20437;-89
2023/06/15 16:19:51;;;;;;;6.40;2.40;;;46.10;1.00;;;;;;5061416;28;20474;-88
2023/06/15 16:23:03;;;;;;;12.93;2.60;;;45.30;1.00;;;;;;5071052;28;20424;-88
2023/06/15 16:25:52;;;;;;;11.97;2.60;;;43.40;1.00;;;;;;5050009;28;20180;-89
2023/06/15 16:28:17;;;;;;;3.53;2.70;;;41.10;1.00;;;;;;5054616;28;20442;-90
2023/06/15 16:30:52;;;;;;;4.97;3.00;;;41.20;1.00;;;;;;5055403;28;20558;-85
2023/06/15 16:33:46;;;;;;;3.13;2.40;;;41.20;1.00;;;;;;5041187;28;20179;-86
2023/06/15 16:36:13;;;;;;;4.20;2.50;;;39.80;1.00;;;;;;5059439;28;20559;-86
2023/06/15 16:38:43;;;;;;;2.67;2.47;;;39.90;1.00;;;;;;5052871;28;20430;-89
2023/06/15 16:41:28;;;;;;;4.67;2.80;;;40.80;1.00;;;;;;5060611;28;20440;-91
2023/06/15 16:44:46;;;;;;;3.13;2.30;;;41.40;1.00;;;;;;5066195;28;20490;-91
2023/06/15 16:53:56;;;;;;;4.43;2.33;;;;;;;;;;5036456;28;20897;-94
2023/06/15 16:56:46;;;;;;;7.13;2.87;;;43.30;1.00;;;;;;5052138;28;20509;-92
2023/06/15 16:59:13;;;;;;;2.50;2.30;;;;;;;;;;5054517;28;20426;-85
2023/06/15 17:01:39;;;;;;;17.20;2.80;;;;;;;;;;5064694;28;20426;-82
2023/06/15 17:04:05;;;;;;;4.00;2.43;;;;;;;;;;5054987;28;20434;-88
2023/06/15 17:06:32;;;;;;;5.73;2.60;;;;;;;;;;5056555;28;20434;-86
2023/06/15 17:09:10;;;;;;;2.67;2.07;;;;;;;;;;5054082;28;20437;-88
2023/06/15 17:11:37;;;;;;;2.57;2.37;;;;;;;;;;5054349;28;20539;-88
2023/06/15 17:14:40;;;;;;;2.50;2.30;;;45.30;1.00;;;;;;5052118;28;20508;-87
2023/06/15 17:17:10;;;;;;;2.77;2.50;;;45.30;1.00;;;;;;5053593;28;20438;-85
2023/06/15 17:19:36;;;;;;;5.40;2.30;;;45.50;1.00;;;;;;5055227;28;20427;-88
2023/06/15 17:22:03;;;;;;;12.73;2.60;;;45.20;1.00;;;;;;5055310;28;20426;-88
2023/06/15 17:25:04;;;;;;;2.87;2.53;;;45.00;1.00;;;;;;5070439;28;20183;-88
2023/06/15 17:30:52;;;;;;;3.20;2.47;;;;;;;;;;5041397;28;20983;-87
2023/06/15 17:33:52;;;;;;;4.90;2.57;;;44.90;1.00;;;;;;5055458;28;20448;-94
2023/06/15 17:36:28;;;;;;;2.80;2.50;;;44.10;1.00;;;;;;5047017;28;20497;-88
2023/06/15 17:38:55;;;;;;;6.73;2.60;;;43.20;1.00;;;;;;5043685;28;20452;-89
2023/06/15 17:41:58;;;;;;;3.00;2.80;;;41.90;1.00;;;;;;5057018;28;20960;-90
2023/06/15 17:44:28;;;;;;;9.60;3.00;;;39.90;1.00;;;;;;5044907;28;20421;-91
2023/06/15 17:46:54;;;;;;;3.80;2.97;;;38.80;1.00;;;;;;5054256;28;20481;-91
2023/06/15 17:49:37;;;;;;;3.20;2.90;;;36.50;1.00;;;;;;5054065;28;20434;-91
2023/06/15 17:52:06;;;;;;;6.13;3.43;;;36.40;1.00;;;;;;5062919;28;20238;-89
2023/06/15 17:58:23;;;;;;;3.87;3.03;;;34.50;1.00;;;;;;5055317;28;20406;-91
2023/06/15 18:07:33;;;;;;;6.33;3.53;;;31.50;1.00;;;;;;5035565;28;20378;-93
2023/06/15 18:10:13;;;;;;;10.03;3.70;;;30.90;1.00;;;;;;5050942;28;20865;-89
2023/06/15 18:12:39;;;;;;;4.90;3.17;;;;;;;;;;5056853;28;20269;-89
2023/06/15 18:18:28;;;;;;;7.47;3.73;;;29.50;1.00;;;;;;5064687;28;20470;-90
2023/06/15 18:24:15;;;;;;;7.27;3.53;;;28.70;1.00;;;;;;5047946;28;20403;-89
2023/06/15 18:30:05;;;;;;;4.60;3.40;;;27.80;1.00;;;;;;5054048;28;20692;-91
2023/06/15 18:32:40;;;;;;;5.40;3.53;;;;;;;;;;5051090;28;20474;-94
2023/06/15 18:35:11;;;;;;;4.17;3.10;;;;;;;;;;5068702;28;20815;-89
2023/06/15 18:37:40;;;;;;;6.50;3.60;;;;;;;;;;5052309;28;20471;-89
2023/06/15 18:40:28;;;;;;;8.23;3.20;;;26.60;1.00;;;;;;5048581;28;20463;-91
2023/06/15 18:43:05;;;;;;;10.50;3.63;;;;;;;;;;5053294;28;20428;-91
2023/06/15 18:46:04;;;;;;;6.13;2.93;;;26.30;1.00;;;;;;5059929;28;20463;-88
2023/06/15 18:48:34;;;;;;;6.90;4.10;;;26.10;1.00;;;;;;5050570;28;20437;-89
2023/06/15 18:54:22;;;;;;;5.47;3.80;;;25.50;1.00;;;;;;5059099;28;20456;-88
2023/06/15 18:56:52;;;;;;;8.90;3.40;;;25.40;1.00;;;;;;5053199;28;20428;-88
2023/06/15 18:59:46;;;;;;;16.43;4.20;;;25.30;1.00;;;;;;5041021;28;20462;-89